Time;durP1;ratioP1;P1;durP2;ratioP2;P2;SDS_P1;SDS_P2;PMS_P1;PMS_P2;Temp;Humidity;BMP_temperature;BMP_pressure;BME280_temperature;BME280_humidity;BME280_pressure;Samples;Min_cycle;Max_cycle;Signal;HPM_P1;HPM_P2
2022/06/10 00:00:59;;;;;;;9.32;5.85;;;13.30;91.20;;;;;;5094148;28;20027;-51
2022/06/10 00:03:26;;;;;;;8.45;7.55;;;13.30;91.20;;;;;;5093578;28;20360;-50
2022/06/10 00:05:55;;;;;;;10.52;6.28;;;13.30;91.20;;;;;;5093790;28;20030;-48
2022/06/10 00:08:24;;;;;;;11.07;6.28;;;13.30;91.30;;;;;;5093387;28;20028;-49
2022/06/10 00:10:51;;;;;;;9.27;6.80;;;13.30;91.30;;;;;;5093324;28;20360;-50
2022/06/10 00:13:19;;;;;;;12.60;5.82;;;13.20;91.30;;;;;;5093244;28;20074;-50
2022/06/10 00:15:45;;;;;;;8.00;6.13;;;13.20;91.40;;;;;;5093225;28;20051;-49
2022/06/10 00:18:12;;;;;;;11.80;6.40;;;13.20;91.40;;;;;;5093687;28;20024;-50
2022/06/10 00:20:38;;;;;;;9.07;6.20;;;13.20;91.30;;;;;;5093703;28;20020;-50
2022/06/10 00:23:04;;;;;;;7.13;4.50;;;13.20;91.20;;;;;;5093799;28;20074;-50
2022/06/10 00:25:30;;;;;;;10.15;5.60;;;13.10;91.30;;;;;;5093442;28;20046;-53
2022/06/10 00:27:55;;;;;;;9.23;5.88;;;13.10;91.40;;;;;;5093337;28;20020;-49
2022/06/10 00:30:24;;;;;;;9.15;4.90;;;13.10;91.40;;;;;;5093468;28;20035;-48
2022/06/10 00:32:50;;;;;;;10.32;5.80;;;13.00;91.30;;;;;;5092120;28;20113;-51
2022/06/10 00:35:17;;;;;;;13.05;5.53;;;13.00;91.30;;;;;;5093346;28;20020;-50
2022/06/10 00:37:43;;;;;;;9.27;5.28;;;12.90;91.40;;;;;;5091967;28;20017;-48
2022/06/10 00:40:15;;;;;;;11.15;4.75;;;12.90;91.40;;;;;;5093598;28;20031;-48
2022/06/10 00:42:41;;;;;;;9.55;6.00;;;12.80;91.50;;;;;;5093346;28;20356;-51
2022/06/10 00:45:27;;;;;;;12.98;6.60;;;12.80;91.50;;;;;;5093719;28;20053;-52
2022/06/10 00:47:54;;;;;;;7.75;5.70;;;12.80;91.60;;;;;;5092174;28;20038;-49
2022/06/10 00:50:28;;;;;;;8.80;6.15;;;12.80;91.80;;;;;;5093539;28;20028;-47
2022/06/10 00:52:59;;;;;;;5.63;5.05;;;12.80;91.70;;;;;;5092909;28;20024;-50
2022/06/10 00:55:29;;;;;;;7.63;5.15;;;12.80;91.70;;;;;;5093360;28;20047;-50
2022/06/10 00:58:04;;;;;;;;;;;12.80;91.70;;;;;;5093967;28;20024;-49
2022/06/10 01:00:30;;;;;;;7.53;6.03;;;12.80;91.80;;;;;;5095234;28;19953;-50
2022/06/10 01:02:56;;;;;;;15.88;7.93;;;12.80;91.70;;;;;;5095378;28;20449;-49
2022/06/10 01:05:25;;;;;;;13.50;5.75;;;12.80;91.80;;;;;;5095554;28;20028;-52
2022/06/10 01:08:06;;;;;;;10.02;6.50;;;12.80;91.80;;;;;;5095256;28;20028;-50
2022/06/10 01:10:54;;;;;;;9.73;5.97;;;12.80;91.80;;;;;;5096865;28;20024;-49
2022/06/10 01:13:38;;;;;;;8.02;5.80;;;12.80;91.90;;;;;;5096205;28;20139;-47
2022/06/10 01:16:27;;;;;;;8.52;6.10;;;12.80;91.90;;;;;;5096371;28;20387;-50
2022/06/10 01:19:13;;;;;;;13.18;6.43;;;12.80;91.80;;;;;;5066278;28;20036;-47
2022/06/10 01:22:29;;;;;;;9.13;5.85;;;12.80;91.90;;;;;;5096670;28;20028;-53
2022/06/10 01:25:02;;;;;;;12.27;5.93;;;12.80;91.80;;;;;;5064701;28;20379;-51
2022/06/10 01:27:56;;;;;;;8.75;5.63;;;12.80;91.80;;;;;;5096284;28;20035;-49
2022/06/10 01:30:44;;;;;;;7.32;5.82;;;12.80;91.70;;;;;;5096205;28;20046;-49
2022/06/10 01:33:26;;;;;;;11.07;6.00;;;12.70;91.70;;;;;;5096183;28;20031;-47
2022/06/10 01:36:04;;;;;;;14.25;5.70;;;12.60;91.80;;;;;;5096556;28;20024;-48
2022/06/10 01:38:56;;;;;;;8.38;5.40;;;12.60;91.80;;;;;;5096197;28;20024;-53
2022/06/10 01:41:38;;;;;;;10.77;5.57;;;12.60;91.90;;;;;;5096623;28;20491;-48
2022/06/10 01:44:16;;;;;;;6.90;4.85;;;12.60;91.90;;;;;;5096499;28;20081;-52
2022/06/10 01:47:12;;;;;;;7.03;5.45;;;12.60;91.90;;;;;;5096518;28;20024;-51
2022/06/10 01:49:59;;;;;;;14.73;5.70;;;12.60;92.00;;;;;;5095033;28;20351;-53
2022/06/10 01:52:24;;;;;;;9.02;5.82;;;12.60;92.00;;;;;;5094595;28;20118;-49
2022/06/10 01:54:59;;;;;;;10.85;7.05;;;12.50;92.00;;;;;;5095746;28;20099;-50
2022/06/10 01:57:43;;;;;;;11.98;6.78;;;12.60;92.00;;;;;;5096322;28;20070;-47
2022/06/10 02:00:15;;;;;;;11.02;6.78;;;12.50;92.10;;;;;;5095781;28;20027;-49
2022/06/10 02:02:47;;;;;;;9.20;6.57;;;12.50;92.10;;;;;;5095905;28;20099;-49
2022/06/10 02:05:19;;;;;;;8.60;5.70;;;12.60;92.20;;;;;;5095740;28;20024;-49
2022/06/10 02:08:07;;;;;;;14.80;7.05;;;12.60;92.20;;;;;;5095990;28;20035;-49
2022/06/10 02:10:51;;;;;;;11.20;6.25;;;12.60;92.30;;;;;;5095319;28;20032;-49
2022/06/10 02:13:23;;;;;;;6.38;5.63;;;12.60;92.30;;;;;;5094278;28;20044;-51
2022/06/10 02:15:55;;;;;;;9.63;6.50;;;12.70;92.30;;;;;;5095652;28;20384;-52
2022/06/10 02:18:40;;;;;;;15.77;8.13;;;12.60;92.30;;;;;;5095621;28;20032;-49
2022/06/10 02:21:13;;;;;;;11.88;6.25;;;12.60;92.30;;;;;;5094328;28;20476;-51
2022/06/10 02:23:44;;;;;;;11.13;6.53;;;12.50;92.20;;;;;;5095357;28;20476;-48
2022/06/10 02:26:10;;;;;;;13.38;6.65;;;12.50;92.20;;;;;;5093731;28;20052;-50
2022/06/10 02:28:42;;;;;;;9.55;6.07;;;12.50;92.30;;;;;;5094998;28;20074;-50
2022/06/10 02:31:23;;;;;;;7.60;6.15;;;12.40;92.20;;;;;;5095321;28;20024;-50
2022/06/10 02:33:49;;;;;;;7.35;6.07;;;12.50;92.20;;;;;;5095136;28;20036;-50
2022/06/10 02:36:28;;;;;;;10.38;6.38;;;12.40;92.10;;;;;;5094178;28;20055;-48
2022/06/10 02:38:59;;;;;;;9.10;6.45;;;12.40;92.10;;;;;;5094910;28;20324;-50
2022/06/10 02:41:28;;;;;;;6.90;5.95;;;12.30;92.10;;;;;;5094818;28;20016;-50
2022/06/10 02:44:26;;;;;;;10.73;7.10;;;12.30;92.20;;;;;;5095094;28;20099;-49
2022/06/10 02:47:18;;;;;;;10.45;5.78;;;12.30;92.20;;;;;;5076513;28;20044;-53
2022/06/10 02:49:44;;;;;;;14.48;6.82;;;12.30;92.20;;;;;;5095248;28;20035;-50
2022/06/10 02:52:13;;;;;;;11.80;7.70;;;12.30;92.30;;;;;;5095008;28;20074;-51
2022/06/10 20:07:12;;;;;;;4.13;2.17;;;21.10;66.90;;;;;;5112386;27;20413;-37
2022/06/10 20:09:41;;;;;;;7.55;2.47;;;21.10;67.20;;;;;;5110174;28;20039;-38
2022/06/10 20:12:08;;;;;;;5.25;2.28;;;21.20;67.10;;;;;;5112488;28;20498;-38
2022/06/10 20:14:33;;;;;;;8.55;2.38;;;21.20;67.50;;;;;;5111559;28;20482;-38
2022/06/10 20:17:00;;;;;;;5.18;2.38;;;21.20;67.00;;;;;;5111772;28;20019;-39
2022/06/10 20:19:30;;;;;;;4.57;1.95;;;21.30;66.80;;;;;;5110365;28;20023;-40
2022/06/10 20:21:57;;;;;;;5.65;2.53;;;21.30;66.70;;;;;;5109840;28;20028;-37
2022/06/10 20:24:25;;;;;;;5.25;2.80;;;21.20;66.90;;;;;;5111261;28;20028;-37
2022/06/10 20:26:51;;;;;;;9.70;2.78;;;21.20;67.30;;;;;;5110523;28;20032;-37
2022/06/10 20:29:17;;;;;;;7.15;3.10;;;21.20;67.40;;;;;;5110706;28;20563;-37
2022/06/10 20:31:54;;;;;;;5.88;2.38;;;21.20;67.30;;;;;;5110295;28;20032;-38
2022/06/10 20:34:26;;;;;;;5.93;2.42;;;21.30;67.10;;;;;;5110922;28;20124;-38
2022/06/10 20:36:53;;;;;;;8.80;3.20;;;21.30;67.00;;;;;;5110537;28;20107;-38
2022/06/10 20:39:22;;;;;;;4.80;2.40;;;21.20;67.20;;;;;;5111151;28;20031;-38
2022/06/10 20:41:49;;;;;;;6.65;2.67;;;21.20;67.30;;;;;;5110881;28;20129;-38
2022/06/10 20:44:17;;;;;;;6.60;2.40;;;21.10;67.20;;;;;;5109271;28;20129;-37
2022/06/10 20:46:53;;;;;;;4.68;2.03;;;21.20;67.20;;;;;;5111319;28;20107;-38
2022/06/10 20:49:30;;;;;;;3.60;2.13;;;21.20;67.20;;;;;;5110764;28;20067;-38
2022/06/10 20:52:00;;;;;;;5.15;2.05;;;21.10;67.40;;;;;;5110868;28;20020;-38
2022/06/10 20:54:27;;;;;;;3.40;2.00;;;21.10;67.40;;;;;;5109508;28;20020;-38
2022/06/10 20:56:52;;;;;;;5.60;1.80;;;21.10;67.60;;;;;;5109818;28;20034;-37
2022/06/10 20:59:22;;;;;;;5.13;2.25;;;21.00;67.60;;;;;;5109006;28;20024;-38
2022/06/10 21:01:54;;;;;;;2.85;1.83;;;20.90;68.00;;;;;;5108993;28;20032;-37
2022/06/10 21:07:29;;;;;;;5.53;1.88;;;20.80;68.50;;;;;;5110630;28;20043;-37
2022/06/10 21:10:00;;;;;;;4.82;2.20;;;20.80;68.50;;;;;;5110337;28;20031;-37
2022/06/10 21:12:27;;;;;;;9.73;2.67;;;20.80;68.50;;;;;;5109604;28;20039;-36
2022/06/10 21:14:52;;;;;;;5.55;2.80;;;20.80;68.80;;;;;;5091566;28;20024;-36
2022/06/10 21:17:35;;;;;;;4.20;2.15;;;20.70;69.10;;;;;;5101105;28;20032;-37
2022/06/10 21:20:01;;;;;;;4.10;2.33;;;20.70;69.30;;;;;;5095987;28;20036;-37
2022/06/10 21:22:26;;;;;;;4.40;2.08;;;20.80;69.20;;;;;;5096099;28;20024;-37
2022/06/10 21:24:53;;;;;;;4.25;1.70;;;20.80;68.90;;;;;;5096153;28;20471;-37
2022/06/10 21:27:23;;;;;;;3.25;1.85;;;20.80;69.10;;;;;;5095905;28;20027;-37
2022/06/10 21:29:49;;;;;;;2.22;1.60;;;20.70;69.20;;;;;;5095926;28;20044;-38
2022/06/10 21:32:18;;;;;;;7.82;1.90;;;20.80;69.20;;;;;;5095761;28;20024;-38
2022/06/10 21:34:45;;;;;;;5.70;1.88;;;20.70;69.20;;;;;;5095622;28;20464;-37
2022/06/10 21:37:18;;;;;;;4.20;1.80;;;20.80;68.90;;;;;;5095930;28;20030;-37
2022/06/10 21:39:47;;;;;;;6.78;2.80;;;20.70;68.80;;;;;;5095752;28;20024;-38
2022/06/10 21:45:05;;;;;;;3.65;2.03;;;20.70;69.30;;;;;;5095864;28;20065;-38
2022/06/10 21:47:36;;;;;;;5.03;1.98;;;20.50;69.60;;;;;;5095900;28;20028;-37
2022/06/10 21:50:25;;;;;;;4.10;2.00;;;20.60;69.40;;;;;;5094608;28;20020;-37
2022/06/10 21:52:54;;;;;;;9.52;3.83;;;20.50;69.70;;;;;;5093997;28;20525;-38
2022/06/10 21:55:27;;;;;;;4.40;1.95;;;20.50;69.90;;;;;;5094411;28;20466;-39
2022/06/10 21:57:59;;;;;;;12.10;3.88;;;20.50;69.70;;;;;;5096846;28;20434;-38
2022/06/10 22:00:48;;;;;;;5.95;3.13;;;20.50;69.80;;;;;;5094967;28;20084;-37
2022/06/10 22:03:26;;;;;;;13.68;5.05;;;20.50;69.80;;;;;;5096263;28;20050;-37
2022/06/10 22:05:52;;;;;;;5.68;2.38;;;20.40;69.90;;;;;;5095809;28;20079;-37
2022/06/10 22:08:18;;;;;;;9.00;2.30;;;20.40;69.90;;;;;;5095425;28;20016;-38
2022/06/10 22:10:44;;;;;;;8.07;2.67;;;20.50;69.90;;;;;;5095121;28;20024;-38
2022/06/10 22:13:11;;;;;;;4.53;2.15;;;20.50;69.70;;;;;;5095043;28;20027;-36
2022/06/10 22:15:37;;;;;;;3.47;2.40;;;20.60;69.20;;;;;;5095578;28;20360;-38
2022/06/10 22:18:15;;;;;;;4.38;2.10;;;20.40;69.90;;;;;;5095295;28;20039;-38
2022/06/10 22:20:41;;;;;;;5.60;2.13;;;20.30;70.20;;;;;;5096513;28;20038;-37
2022/06/10 22:23:19;;;;;;;6.07;1.92;;;20.30;70.50;;;;;;5095632;28;20486;-37
2022/06/10 22:25:50;;;;;;;9.20;2.55;;;20.30;70.60;;;;;;5095273;28;20035;-37
2022/06/10 22:28:16;;;;;;;5.32;2.20;;;20.30;70.60;;;;;;5094494;28;20044;-37
2022/06/10 22:30:46;;;;;;;10.27;2.53;;;20.30;70.50;;;;;;5095593;28;20055;-37
2022/06/10 22:33:40;;;;;;;4.75;2.03;;;20.30;70.60;;;;;;5095907;28;20020;-38
2022/06/10 22:36:07;;;;;;;5.82;2.10;;;20.30;70.30;;;;;;5058234;28;20039;-37
2022/06/10 22:38:42;;;;;;;5.25;2.13;;;20.30;70.60;;;;;;5096082;28;20043;-38
2022/06/10 22:41:22;;;;;;;6.75;1.90;;;20.30;70.80;;;;;;5095509;28;20441;-37
2022/06/10 22:43:48;;;;;;;5.00;2.47;;;20.30;70.60;;;;;;5095243;28;20111;-37
2022/06/10 22:46:25;;;;;;;7.00;2.03;;;20.30;70.70;;;;;;5093870;28;20055;-37
2022/06/10 22:48:51;;;;;;;6.90;2.00;;;20.30;70.40;;;;;;5093229;28;20479;-37
2022/06/10 22:51:27;;;;;;;7.93;2.65;;;20.50;69.70;;;;;;5094841;28;20376;-37
2022/06/10 22:53:54;;;;;;;4.68;2.30;;;20.60;69.30;;;;;;5094689;28;20027;-37
2022/06/10 22:56:22;;;;;;;4.90;1.95;;;20.60;69.30;;;;;;5094720;28;20365;-37
2022/06/10 22:58:48;;;;;;;4.60;1.92;;;20.50;69.50;;;;;;5094279;28;20097;-37
2022/06/10 23:01:16;;;;;;;6.90;2.45;;;20.60;69.30;;;;;;5094002;28;20020;-37
2022/06/10 23:03:48;;;;;;;8.25;2.63;;;20.50;69.50;;;;;;5094191;28;20058;-39
2022/06/10 23:06:26;;;;;;;4.80;2.05;;;20.40;70.10;;;;;;5093701;28;20051;-36
2022/06/10 23:11:45;;;;;;;3.17;1.92;;;20.60;69.10;;;;;;5095087;28;20078;-39
2022/06/10 23:14:27;;;;;;;5.85;2.20;;;20.60;69.10;;;;;;5096095;28;20130;-40
2022/06/10 23:16:59;;;;;;;7.50;2.28;;;20.50;69.20;;;;;;5093899;28;20028;-39
2022/06/10 23:19:37;;;;;;;3.55;2.15;;;20.50;69.50;;;;;;5097648;28;20106;-40
2022/06/10 23:22:13;;;;;;;9.82;2.38;;;20.50;69.40;;;;;;5095157;28;20038;-40
2022/06/10 23:24:42;;;;;;;12.75;4.72;;;20.50;69.50;;;;;;5096179;28;20035;-38
2022/06/10 23:27:17;;;;;;;6.43;2.05;;;20.40;70.10;;;;;;5095766;28;20068;-38
2022/06/10 23:29:44;;;;;;;8.13;2.72;;;20.30;70.40;;;;;;5094970;28;20061;-38
2022/06/10 23:32:22;;;;;;;7.40;2.88;;;20.30;70.30;;;;;;5095119;28;20024;-38
2022/06/10 23:34:48;;;;;;;3.78;1.70;;;20.40;69.90;;;;;;5079929;28;20035;-38
2022/06/10 23:37:18;;;;;;;5.63;2.08;;;20.30;70.50;;;;;;5095360;28;20035;-38
2022/06/10 23:39:44;;;;;;;;;;;20.30;70.70;;;;;;5095274;28;20515;-42
2022/06/10 23:42:28;;;;;;;4.45;2.45;;;20.30;70.90;;;;;;5094710;28;19904;-39
2022/06/10 23:44:58;;;;;;;15.82;2.65;;;20.30;70.70;;;;;;5093516;28;20096;-39
2022/06/10 23:50:29;;;;;;;2.75;1.98;;;20.30;70.20;;;;;;5094546;28;20032;-38
2022/06/10 23:53:15;;;;;;;3.25;1.70;;;20.40;70.20;;;;;;5094218;28;20484;-38
2022/06/10 23:58:39;;;;;;;9.30;2.80;;;20.30;70.60;;;;;;5094366;28;20035;-38
